Clifton, Colorado
Current Conditions -  °F | °C
As of 6:53 PM on Saturday 25 Oct 2014 (Local Time) from KGJT Reporting Station
Clear Clear  
Wind Chill: 63°   Ceiling: Unl
Heat Index: 63°   Visibility: 10mi
Dew Point: 34°   Wind: 7mph
Humidity: 34%   Direction: 30°NNE
Pressure: 30.07"   Gusts: NA
Location:  39.09°N, 108.44°W
Report Text: KGJT 260053Z 03006KT 10SM CLR 17/01 A3007 RMK AO2 SLP150 T01720011
Loading
Personal Weather Stations






























Interactive Weather Map
Tropical Storm Tracking
New forecast layout! Learn more

10-Day Weather Forecast

Advertisements
Track Severe Weather on mobile